Southwick, Idaho
Current Conditions -  °F | °C
As of 9:53 AM on Saturday 20 Dec 2014 (Local Time) from KPUW Reporting Station
Overcast Overcast  
Wind Chill: 29°   Ceiling: 3600
Heat Index: 38°   Visibility: 10mi
Dew Point: 35°   Wind: 15mph
Humidity: 89%   Direction: 100°E
Pressure: 29.84"   Gusts: NA
Location:  46.6455°N, 116.545°W
Report Text: KPUW 201753Z AUTO 10013KT 10SM OVC036 03/02 A2984 RMK AO2 SLP123 60000 T00330017 10033 20017 58014
Loading
Personal Weather Stations






























Interactive Weather Map New forecast layout! Learn more

10-Day Weather Forecast

Advertisements
Track Severe Weather on mobile